Terminal Aerodrome Forecast
Issued by NWS Wilmington, OH

Current Version | Previous Version | Text Only | Print | Product List | Glossary Off
Versions: 1 2 3 4 5 6 7 8 9 10 11 12 13 14 15 16 17 18 19 20 21 22 23 24 25 26 27 28 29 30 31

000
FTUS41 KILN 201100
TAFDAY
TAF
KDAY 201122Z 2012/2112 20006KT P6SM VCSH BKN090
     FM201400 22014G22KT P6SM SCT030 BKN080
     FM201700 23014G22KT P6SM VCSH BKN035
      TEMPO 2021/2024 OVC025
     FM210100 27007KT P6SM SCT030
     FM210500 30006KT 5SM BR OVC006
      TEMPO 2109/2112 P6SM NSW OVC008=

USA.gov is the U.S. government's official web portal to all federal, state and local government web resources and services.